Terminal Aerodrome Forecast
Issued by NWS

Home | Current Version | Previous Version | Text Only | Print | Product List | Glossary On
Versions: 1 2 3 4 5 6 7 8 9 10 11 12 13 14 15 16 17 18 19 20 21 22 23 24 25 26 27 28 29 30 31 32 33 34 35 36 37 38 39 40 41
000
FTUS41 KOKX 230200 AAD
TAFGON
TAF AMD
KGON 230246Z 2303/2324 02018G26KT 6SM RA VCTS SCT015CB BKN035
      WS020/03050KT
      TEMPO 2303/2304 4SM RA BR BKN015
     FM230400 02021G33KT 4SM RA BR BKN015 OVC035 WS020/03050KT
     FM230600 02018G27KT 4SM -RA BR BKN010
     FM231300 01015G23KT 6SM BR VCSH BKN015
     FM231700 36014G22KT P6SM BKN015=

USA.gov is the U.S. government's official web portal to all federal, state and local government web resources and services.